sensor_id;sensor_type;location;lat;lon;timestamp;P1;durP1;ratioP1;P2;durP2;ratioP2
37284;SDS011;23172;53.550;9.964;2024-02-04T00:03:06;1999.90;;;609.40;;
37284;SDS011;23172;53.550;9.964;2024-02-04T00:08:08;1999.90;;;811.90;;
37284;SDS011;23172;53.550;9.964;2024-02-04T00:13:10;1999.90;;;846.83;;
37284;SDS011;23172;53.550;9.964;2024-02-04T00:18:13;1999.90;;;804.30;;
37284;SDS011;23172;53.550;9.964;2024-02-04T00:23:15;1999.90;;;886.15;;
37284;SDS011;23172;53.550;9.964;2024-02-04T00:28:16;1999.90;;;699.25;;
37284;SDS011;23172;53.550;9.964;2024-02-04T00:33:21;1999.90;;;841.08;;
37284;SDS011;23172;53.550;9.964;2024-02-04T00:38:23;1999.90;;;984.65;;
37284;SDS011;23172;53.550;9.964;2024-02-04T00:43:25;1996.75;;;780.53;;
37284;SDS011;23172;53.550;9.964;2024-02-04T00:48:28;1999.90;;;847.42;;
37284;SDS011;23172;53.550;9.964;2024-02-04T00:53:30;1998.18;;;877.63;;
37284;SDS011;23172;53.550;9.964;2024-02-04T00:58:34;1999.90;;;950.03;;
37284;SDS011;23172;53.550;9.964;2024-02-04T01:03:38;1993.20;;;890.25;;
37284;SDS011;23172;53.550;9.964;2024-02-04T01:08:39;1973.20;;;917.70;;
37284;SDS011;23172;53.550;9.964;2024-02-04T01:13:41;1991.28;;;851.63;;
37284;SDS011;23172;53.550;9.964;2024-02-04T01:18:45;1999.90;;;898.50;;
37284;SDS011;23172;53.550;9.964;2024-02-04T01:23:47;1999.90;;;823.05;;
37284;SDS011;23172;53.550;9.964;2024-02-04T01:28:49;1999.90;;;881.80;;
37284;SDS011;23172;53.550;9.964;2024-02-04T01:33:52;1999.90;;;868.97;;
37284;SDS011;23172;53.550;9.964;2024-02-04T01:38:54;1935.82;;;816.03;;
37284;SDS011;23172;53.550;9.964;2024-02-04T01:43:56;1655.13;;;790.28;;
37284;SDS011;23172;53.550;9.964;2024-02-04T01:48:59;1999.90;;;783.60;;
37284;SDS011;23172;53.550;9.964;2024-02-04T01:54:01;1898.78;;;908.67;;
37284;SDS011;23172;53.550;9.964;2024-02-04T01:59:04;1924.88;;;848.30;;
37284;SDS011;23172;53.550;9.964;2024-02-04T02:04:07;1999.90;;;774.08;;
37284;SDS011;23172;53.550;9.964;2024-02-04T02:09:09;1972.07;;;888.05;;
37284;SDS011;23172;53.550;9.964;2024-02-04T02:14:13;1905.28;;;838.28;;
37284;SDS011;23172;53.550;9.964;2024-02-04T02:19:22;1906.57;;;903.83;;
37284;SDS011;23172;53.550;9.964;2024-02-04T02:24:35;1816.13;;;843.80;;
37284;SDS011;23172;53.550;9.964;2024-02-04T02:29:40;1999.90;;;884.83;;
37284;SDS011;23172;53.550;9.964;2024-02-04T02:34:41;1999.90;;;868.00;;
37284;SDS011;23172;53.550;9.964;2024-02-04T02:39:48;1999.90;;;951.17;;
37284;SDS011;23172;53.550;9.964;2024-02-04T02:44:57;1999.90;;;927.25;;
37284;SDS011;23172;53.550;9.964;2024-02-04T02:50:00;1999.90;;;898.88;;
37284;SDS011;23172;53.550;9.964;2024-02-04T02:55:04;1999.90;;;891.13;;
37284;SDS011;23172;53.550;9.964;2024-02-04T03:00:07;1999.90;;;852.55;;
37284;SDS011;23172;53.550;9.964;2024-02-04T03:05:09;1999.90;;;608.70;;
37284;SDS011;23172;53.550;9.964;2024-02-04T03:10:13;1999.90;;;759.50;;
37284;SDS011;23172;53.550;9.964;2024-02-04T03:15:15;1875.35;;;485.05;;
37284;SDS011;23172;53.550;9.964;2024-02-04T03:20:17;1945.50;;;541.38;;
37284;SDS011;23172;53.550;9.964;2024-02-04T03:25:20;1973.50;;;587.88;;
37284;SDS011;23172;53.550;9.964;2024-02-04T03:30:23;1999.90;;;600.83;;
37284;SDS011;23172;53.550;9.964;2024-02-04T03:35:25;1999.90;;;632.33;;
37284;SDS011;23172;53.550;9.964;2024-02-04T03:40:28;1983.70;;;491.30;;
37284;SDS011;23172;53.550;9.964;2024-02-04T03:45:30;1999.90;;;744.78;;
37284;SDS011;23172;53.550;9.964;2024-02-04T03:50:32;1999.90;;;649.15;;
37284;SDS011;23172;53.550;9.964;2024-02-04T03:55:35;1999.90;;;733.83;;
37284;SDS011;23172;53.550;9.964;2024-02-04T04:00:37;1999.90;;;720.33;;
37284;SDS011;23172;53.550;9.964;2024-02-04T04:05:40;1999.90;;;627.33;;
37284;SDS011;23172;53.550;9.964;2024-02-04T04:10:43;1999.90;;;711.72;;
37284;SDS011;23172;53.550;9.964;2024-02-04T04:15:45;1999.90;;;804.55;;
37284;SDS011;23172;53.550;9.964;2024-02-04T04:20:47;1999.90;;;810.88;;
37284;SDS011;23172;53.550;9.964;2024-02-04T04:25:50;1994.15;;;886.50;;
37284;SDS011;23172;53.550;9.964;2024-02-04T04:30:55;1999.90;;;853.38;;
37284;SDS011;23172;53.550;9.964;2024-02-04T04:35:57;1932.57;;;877.85;;
37284;SDS011;23172;53.550;9.964;2024-02-04T04:41:00;1985.13;;;870.38;;
37284;SDS011;23172;53.550;9.964;2024-02-04T04:46:02;1951.40;;;860.83;;
37284;SDS011;23172;53.550;9.964;2024-02-04T04:51:04;1993.07;;;831.08;;
37284;SDS011;23172;53.550;9.964;2024-02-04T04:56:10;1554.00;;;704.30;;
37284;SDS011;23172;53.550;9.964;2024-02-04T05:01:13;1717.07;;;767.90;;
37284;SDS011;23172;53.550;9.964;2024-02-04T05:06:15;1553.90;;;744.85;;
37284;SDS011;23172;53.550;9.964;2024-02-04T05:11:18;1324.30;;;770.72;;
37284;SDS011;23172;53.550;9.964;2024-02-04T05:16:20;1238.47;;;725.55;;
37284;SDS011;23172;53.550;9.964;2024-02-04T05:21:22;1719.15;;;830.95;;
37284;SDS011;23172;53.550;9.964;2024-02-04T05:26:25;1503.45;;;730.67;;
37284;SDS011;23172;53.550;9.964;2024-02-04T05:31:27;1669.05;;;782.72;;
37284;SDS011;23172;53.550;9.964;2024-02-04T05:36:28;1510.00;;;661.72;;
37284;SDS011;23172;53.550;9.964;2024-02-04T05:41:32;1192.45;;;689.30;;
37284;SDS011;23172;53.550;9.964;2024-02-04T05:46:34;1452.82;;;690.25;;
37284;SDS011;23172;53.550;9.964;2024-02-04T05:51:37;1370.07;;;630.58;;
37284;SDS011;23172;53.550;9.964;2024-02-04T05:56:41;1229.18;;;686.63;;
37284;SDS011;23172;53.550;9.964;2024-02-04T06:01:43;1058.43;;;603.55;;
37284;SDS011;23172;53.550;9.964;2024-02-04T06:06:45;1703.30;;;740.60;;
37284;SDS011;23172;53.550;9.964;2024-02-04T06:11:49;1480.00;;;651.63;;
37284;SDS011;23172;53.550;9.964;2024-02-04T06:16:51;1061.30;;;664.53;;
37284;SDS011;23172;53.550;9.964;2024-02-04T06:21:52;1266.70;;;669.22;;
37284;SDS011;23172;53.550;9.964;2024-02-04T06:26:56;1502.47;;;618.30;;
37284;SDS011;23172;53.550;9.964;2024-02-04T06:31:57;1252.57;;;701.30;;
37284;SDS011;23172;53.550;9.964;2024-02-04T06:36:59;1445.35;;;683.33;;
37284;SDS011;23172;53.550;9.964;2024-02-04T06:42:03;1546.15;;;784.50;;
37284;SDS011;23172;53.550;9.964;2024-02-04T06:47:05;1484.22;;;693.70;;
37284;SDS011;23172;53.550;9.964;2024-02-04T06:52:09;1384.47;;;685.08;;
37284;SDS011;23172;53.550;9.964;2024-02-04T06:57:20;1477.03;;;739.53;;
37284;SDS011;23172;53.550;9.964;2024-02-04T07:02:27;1433.30;;;705.42;;
37284;SDS011;23172;53.550;9.964;2024-02-04T07:07:39;1796.45;;;808.80;;
37284;SDS011;23172;53.550;9.964;2024-02-04T07:12:49;1489.28;;;758.55;;
37284;SDS011;23172;53.550;9.964;2024-02-04T07:17:51;1560.75;;;778.10;;
37284;SDS011;23172;53.550;9.964;2024-02-04T07:22:52;1625.43;;;760.97;;
37284;SDS011;23172;53.550;9.964;2024-02-04T07:27:56;1999.90;;;844.13;;
37284;SDS011;23172;53.550;9.964;2024-02-04T07:32:58;1344.32;;;746.45;;
37284;SDS011;23172;53.550;9.964;2024-02-04T07:38:00;1701.82;;;793.33;;
37284;SDS011;23172;53.550;9.964;2024-02-04T07:43:03;1961.53;;;755.10;;
37284;SDS011;23172;53.550;9.964;2024-02-04T07:48:05;1659.38;;;779.85;;
37284;SDS011;23172;53.550;9.964;2024-02-04T07:53:09;1999.90;;;828.08;;
37284;SDS011;23172;53.550;9.964;2024-02-04T07:58:12;1999.90;;;848.55;;
37284;SDS011;23172;53.550;9.964;2024-02-04T08:03:14;1859.63;;;829.05;;
37284;SDS011;23172;53.550;9.964;2024-02-04T08:08:16;1713.50;;;782.05;;
37284;SDS011;23172;53.550;9.964;2024-02-04T08:13:20;1912.18;;;877.33;;
37284;SDS011;23172;53.550;9.964;2024-02-04T08:18:22;1999.90;;;833.47;;
37284;SDS011;23172;53.550;9.964;2024-02-04T08:23:24;1999.90;;;845.38;;
37284;SDS011;23172;53.550;9.964;2024-02-04T08:28:27;1987.70;;;868.85;;
37284;SDS011;23172;53.550;9.964;2024-02-04T08:33:29;1999.90;;;835.55;;
37284;SDS011;23172;53.550;9.964;2024-02-04T08:38:31;1999.90;;;778.95;;
37284;SDS011;23172;53.550;9.964;2024-02-04T08:43:34;1999.90;;;736.63;;
37284;SDS011;23172;53.550;9.964;2024-02-04T08:48:36;1999.90;;;875.67;;
37284;SDS011;23172;53.550;9.964;2024-02-04T08:53:38;1999.90;;;717.83;;
37284;SDS011;23172;53.550;9.964;2024-02-04T08:58:41;1999.90;;;501.58;;
37284;SDS011;23172;53.550;9.964;2024-02-04T09:03:43;1676.75;;;361.17;;
37284;SDS011;23172;53.550;9.964;2024-02-04T09:08:45;1749.75;;;266.23;;
37284;SDS011;23172;53.550;9.964;2024-02-04T09:13:49;1952.28;;;438.58;;
37284;SDS011;23172;53.550;9.964;2024-02-04T09:18:52;1914.35;;;328.35;;
37284;SDS011;23172;53.550;9.964;2024-02-04T09:23:54;1076.07;;;132.55;;
37284;SDS011;23172;53.550;9.964;2024-02-04T09:28:58;1825.78;;;822.08;;
37284;SDS011;23172;53.550;9.964;2024-02-04T09:34:00;1785.43;;;798.33;;
37284;SDS011;23172;53.550;9.964;2024-02-04T09:39:02;1393.20;;;193.27;;
37284;SDS011;23172;53.550;9.964;2024-02-04T09:44:06;1314.22;;;133.13;;
37284;SDS011;23172;53.550;9.964;2024-02-04T09:49:09;1306.13;;;530.33;;
37284;SDS011;23172;53.550;9.964;2024-02-04T09:54:12;1999.90;;;999.90;;
37284;SDS011;23172;53.550;9.964;2024-02-04T09:59:18;1999.90;;;999.90;;
37284;SDS011;23172;53.550;9.964;2024-02-04T10:04:20;1999.90;;;999.90;;
37284;SDS011;23172;53.550;9.964;2024-02-04T10:09:22;1999.90;;;999.90;;
37284;SDS011;23172;53.550;9.964;2024-02-04T10:14:25;1724.10;;;784.78;;
37284;SDS011;23172;53.550;9.964;2024-02-04T10:19:27;1638.95;;;577.05;;
37284;SDS011;23172;53.550;9.964;2024-02-04T10:24:29;1999.90;;;999.90;;
37284;SDS011;23172;53.550;9.964;2024-02-04T10:29:33;1999.90;;;999.90;;
37284;SDS011;23172;53.550;9.964;2024-02-04T10:34:36;1726.95;;;217.10;;
37284;SDS011;23172;53.550;9.964;2024-02-04T10:39:38;1376.00;;;247.50;;
37284;SDS011;23172;53.550;9.964;2024-02-04T10:44:42;1185.93;;;145.95;;
37284;SDS011;23172;53.550;9.964;2024-02-04T10:49:48;1863.53;;;802.75;;
37284;SDS011;23172;53.550;9.964;2024-02-04T10:54:53;1617.20;;;237.85;;
37284;SDS011;23172;53.550;9.964;2024-02-04T10:59:58;728.50;;;102.28;;
37284;SDS011;23172;53.550;9.964;2024-02-04T11:05:02;1412.80;;;526.13;;
37284;SDS011;23172;53.550;9.964;2024-02-04T11:10:05;1999.90;;;999.90;;
37284;SDS011;23172;53.550;9.964;2024-02-04T11:15:10;1999.90;;;999.90;;
37284;SDS011;23172;53.550;9.964;2024-02-04T11:20:19;1999.90;;;999.90;;
37284;SDS011;23172;53.550;9.964;2024-02-04T11:25:44;1999.90;;;999.90;;
37284;SDS011;23172;53.550;9.964;2024-02-04T11:30:50;1663.57;;;767.38;;
37284;SDS011;23172;53.550;9.964;2024-02-04T11:36:03;1999.90;;;999.90;;
37284;SDS011;23172;53.550;9.964;2024-02-04T11:41:05;1999.90;;;999.90;;
37284;SDS011;23172;53.550;9.964;2024-02-04T11:46:15;184.00;;;15.95;;
37284;SDS011;23172;53.550;9.964;2024-02-04T11:51:21;1584.43;;;757.28;;
37284;SDS011;23172;53.550;9.964;2024-02-04T11:56:23;1999.90;;;999.90;;
37284;SDS011;23172;53.550;9.964;2024-02-04T12:01:27;1999.90;;;999.90;;
37284;SDS011;23172;53.550;9.964;2024-02-04T12:06:30;1999.90;;;999.90;;
37284;SDS011;23172;53.550;9.964;2024-02-04T12:11:33;1999.90;;;999.90;;
37284;SDS011;23172;53.550;9.964;2024-02-04T12:16:37;1999.90;;;999.90;;
37284;SDS011;23172;53.550;9.964;2024-02-04T12:21:40;1999.90;;;999.90;;
37284;SDS011;23172;53.550;9.964;2024-02-04T12:26:42;1999.90;;;999.90;;
37284;SDS011;23172;53.550;9.964;2024-02-04T12:31:47;1999.90;;;999.90;;
37284;SDS011;23172;53.550;9.964;2024-02-04T12:36:56;1999.90;;;999.90;;
37284;SDS011;23172;53.550;9.964;2024-02-04T12:41:59;1999.90;;;999.90;;
37284;SDS011;23172;53.550;9.964;2024-02-04T12:47:02;1999.90;;;999.90;;
37284;SDS011;23172;53.550;9.964;2024-02-04T12:52:05;1999.90;;;999.90;;
37284;SDS011;23172;53.550;9.964;2024-02-04T12:57:08;1999.90;;;999.90;;
37284;SDS011;23172;53.550;9.964;2024-02-04T13:02:13;1999.90;;;999.90;;
37284;SDS011;23172;53.550;9.964;2024-02-04T13:07:16;1999.90;;;999.90;;
37284;SDS011;23172;53.550;9.964;2024-02-04T13:12:19;1999.90;;;999.90;;
37284;SDS011;23172;53.550;9.964;2024-02-04T13:17:22;1999.90;;;999.90;;
37284;SDS011;23172;53.550;9.964;2024-02-04T13:22:24;1999.90;;;999.90;;
37284;SDS011;23172;53.550;9.964;2024-02-04T13:27:26;1999.90;;;999.90;;
37284;SDS011;23172;53.550;9.964;2024-02-04T13:32:29;1999.90;;;999.90;;
37284;SDS011;23172;53.550;9.964;2024-02-04T13:37:31;1999.90;;;999.90;;
37284;SDS011;23172;53.550;9.964;2024-02-04T13:42:34;1999.90;;;999.90;;
37284;SDS011;23172;53.550;9.964;2024-02-04T13:47:37;1999.90;;;999.90;;
37284;SDS011;23172;53.550;9.964;2024-02-04T13:52:39;1999.90;;;999.90;;
37284;SDS011;23172;53.550;9.964;2024-02-04T13:57:41;1999.90;;;999.90;;
37284;SDS011;23172;53.550;9.964;2024-02-04T14:02:45;1999.90;;;999.90;;
37284;SDS011;23172;53.550;9.964;2024-02-04T14:07:47;1999.90;;;999.90;;
37284;SDS011;23172;53.550;9.964;2024-02-04T14:12:49;1999.90;;;999.90;;
37284;SDS011;23172;53.550;9.964;2024-02-04T14:17:52;1026.95;;;503.30;;
37284;SDS011;23172;53.550;9.964;2024-02-04T14:22:54;1999.90;;;999.90;;
37284;SDS011;23172;53.550;9.964;2024-02-04T14:28:02;1999.90;;;999.90;;
37284;SDS011;23172;53.550;9.964;2024-02-04T14:33:06;1999.90;;;999.90;;
37284;SDS011;23172;53.550;9.964;2024-02-04T14:38:08;1999.90;;;999.90;;
37284;SDS011;23172;53.550;9.964;2024-02-04T14:43:10;1999.90;;;999.90;;
37284;SDS011;23172;53.550;9.964;2024-02-04T14:48:15;1999.90;;;999.90;;
37284;SDS011;23172;53.550;9.964;2024-02-04T14:53:17;1516.15;;;752.25;;
37284;SDS011;23172;53.550;9.964;2024-02-04T14:58:18;1563.25;;;755.70;;
37284;SDS011;23172;53.550;9.964;2024-02-04T15:03:24;1999.90;;;999.90;;
37284;SDS011;23172;53.550;9.964;2024-02-04T15:08:30;1999.90;;;999.90;;
37284;SDS011;23172;53.550;9.964;2024-02-04T15:13:32;930.58;;;173.98;;
37284;SDS011;23172;53.550;9.964;2024-02-04T15:18:36;1999.90;;;558.78;;
37284;SDS011;23172;53.550;9.964;2024-02-04T15:23:39;1999.90;;;827.53;;
37284;SDS011;23172;53.550;9.964;2024-02-04T15:28:41;1999.90;;;854.08;;
37284;SDS011;23172;53.550;9.964;2024-02-04T15:33:45;1999.90;;;801.13;;
37284;SDS011;23172;53.550;9.964;2024-02-04T15:38:48;1530.20;;;691.60;;
37284;SDS011;23172;53.550;9.964;2024-02-04T15:43:50;1574.55;;;666.92;;
37284;SDS011;23172;53.550;9.964;2024-02-04T15:48:54;1041.03;;;569.75;;
37284;SDS011;23172;53.550;9.964;2024-02-04T15:53:57;1189.88;;;485.23;;
37284;SDS011;23172;53.550;9.964;2024-02-04T15:59:03;573.85;;;370.00;;
37284;SDS011;23172;53.550;9.964;2024-02-04T16:04:11;441.67;;;201.43;;
37284;SDS011;23172;53.550;9.964;2024-02-04T16:09:16;644.40;;;264.77;;
37284;SDS011;23172;53.550;9.964;2024-02-04T16:14:19;355.48;;;166.02;;
37284;SDS011;23172;53.550;9.964;2024-02-04T16:19:24;278.58;;;99.95;;
37284;SDS011;23172;53.550;9.964;2024-02-04T16:24:27;289.73;;;116.55;;
37284;SDS011;23172;53.550;9.964;2024-02-04T16:29:29;257.45;;;117.70;;
37284;SDS011;23172;53.550;9.964;2024-02-04T16:34:32;200.95;;;100.25;;
37284;SDS011;23172;53.550;9.964;2024-02-04T16:39:35;208.35;;;85.93;;
37284;SDS011;23172;53.550;9.964;2024-02-04T16:44:37;198.02;;;87.05;;
37284;SDS011;23172;53.550;9.964;2024-02-04T16:49:41;157.25;;;70.75;;
37284;SDS011;23172;53.550;9.964;2024-02-04T16:54:43;307.42;;;92.18;;
37284;SDS011;23172;53.550;9.964;2024-02-04T16:59:45;159.75;;;63.40;;
37284;SDS011;23172;53.550;9.964;2024-02-04T17:04:49;162.82;;;66.50;;
37284;SDS011;23172;53.550;9.964;2024-02-04T17:09:52;171.82;;;55.92;;
37284;SDS011;23172;53.550;9.964;2024-02-04T17:14:55;187.88;;;69.03;;
37284;SDS011;23172;53.550;9.964;2024-02-04T17:20:01;136.80;;;62.38;;
37284;SDS011;23172;53.550;9.964;2024-02-04T17:25:11;129.70;;;64.63;;
37284;SDS011;23172;53.550;9.964;2024-02-04T17:30:17;107.55;;;55.25;;
37284;SDS011;23172;53.550;9.964;2024-02-04T17:35:21;190.35;;;60.75;;
37284;SDS011;23172;53.550;9.964;2024-02-04T17:40:28;119.07;;;44.70;;
37284;SDS011;23172;53.550;9.964;2024-02-04T17:45:31;158.57;;;58.28;;
37284;SDS011;23172;53.550;9.964;2024-02-04T17:50:35;125.63;;;61.80;;
37284;SDS011;23172;53.550;9.964;2024-02-04T17:55:37;157.90;;;66.95;;
37284;SDS011;23172;53.550;9.964;2024-02-04T18:00:39;126.97;;;50.60;;
37284;SDS011;23172;53.550;9.964;2024-02-04T18:05:44;154.48;;;45.72;;
37284;SDS011;23172;53.550;9.964;2024-02-04T18:10:47;133.70;;;58.75;;
37284;SDS011;23172;53.550;9.964;2024-02-04T18:15:50;132.40;;;57.60;;
37284;SDS011;23172;53.550;9.964;2024-02-04T18:20:55;117.50;;;45.22;;
37284;SDS011;23172;53.550;9.964;2024-02-04T18:25:57;197.57;;;50.42;;
37284;SDS011;23172;53.550;9.964;2024-02-04T18:30:59;144.65;;;51.63;;
37284;SDS011;23172;53.550;9.964;2024-02-04T18:36:02;228.73;;;54.22;;
37284;SDS011;23172;53.550;9.964;2024-02-04T18:41:06;152.68;;;44.38;;
37284;SDS011;23172;53.550;9.964;2024-02-04T18:46:09;79.90;;;39.70;;
37284;SDS011;23172;53.550;9.964;2024-02-04T18:51:13;155.13;;;57.05;;
37284;SDS011;23172;53.550;9.964;2024-02-04T18:56:15;159.60;;;57.95;;
37284;SDS011;23172;53.550;9.964;2024-02-04T19:01:17;145.25;;;52.53;;
37284;SDS011;23172;53.550;9.964;2024-02-04T19:06:27;134.07;;;53.70;;
37284;SDS011;23172;53.550;9.964;2024-02-04T19:11:30;111.28;;;35.40;;
37284;SDS011;23172;53.550;9.964;2024-02-04T19:16:32;234.27;;;63.42;;
37284;SDS011;23172;53.550;9.964;2024-02-04T19:21:42;134.68;;;48.28;;
37284;SDS011;23172;53.550;9.964;2024-02-04T19:26:45;129.27;;;50.08;;
37284;SDS011;23172;53.550;9.964;2024-02-04T19:31:47;90.13;;;47.00;;
37284;SDS011;23172;53.550;9.964;2024-02-04T19:36:51;126.95;;;42.08;;
37284;SDS011;23172;53.550;9.964;2024-02-04T19:41:52;101.47;;;43.58;;
37284;SDS011;23172;53.550;9.964;2024-02-04T19:46:56;94.10;;;32.13;;
37284;SDS011;23172;53.550;9.964;2024-02-04T19:52:00;122.72;;;53.10;;
37284;SDS011;23172;53.550;9.964;2024-02-04T19:57:02;111.57;;;43.67;;
37284;SDS011;23172;53.550;9.964;2024-02-04T20:02:05;174.85;;;67.15;;
37284;SDS011;23172;53.550;9.964;2024-02-04T20:07:08;145.48;;;48.67;;
37284;SDS011;23172;53.550;9.964;2024-02-04T20:12:10;123.93;;;37.30;;
37284;SDS011;23172;53.550;9.964;2024-02-04T20:17:13;105.78;;;44.17;;
37284;SDS011;23172;53.550;9.964;2024-02-04T20:22:16;84.53;;;37.83;;
37284;SDS011;23172;53.550;9.964;2024-02-04T20:27:20;146.05;;;45.80;;
37284;SDS011;23172;53.550;9.964;2024-02-04T20:32:22;98.55;;;40.90;;
37284;SDS011;23172;53.550;9.964;2024-02-04T20:37:26;120.35;;;39.17;;
37284;SDS011;23172;53.550;9.964;2024-02-04T20:42:29;103.00;;;42.17;;
37284;SDS011;23172;53.550;9.964;2024-02-04T20:47:31;100.30;;;32.22;;
37284;SDS011;23172;53.550;9.964;2024-02-04T20:52:34;90.88;;;36.20;;
37284;SDS011;23172;53.550;9.964;2024-02-04T20:57:36;88.10;;;35.65;;
37284;SDS011;23172;53.550;9.964;2024-02-04T21:02:39;96.10;;;30.92;;
37284;SDS011;23172;53.550;9.964;2024-02-04T21:07:44;79.70;;;40.10;;
37284;SDS011;23172;53.550;9.964;2024-02-04T21:12:46;84.68;;;28.00;;
37284;SDS011;23172;53.550;9.964;2024-02-04T21:17:48;97.00;;;45.70;;
37284;SDS011;23172;53.550;9.964;2024-02-04T21:22:51;59.30;;;26.67;;
37284;SDS011;23172;53.550;9.964;2024-02-04T21:27:54;148.95;;;39.58;;
37284;SDS011;23172;53.550;9.964;2024-02-04T21:32:56;120.95;;;43.88;;
37284;SDS011;23172;53.550;9.964;2024-02-04T21:37:59;80.38;;;32.20;;
37284;SDS011;23172;53.550;9.964;2024-02-04T21:43:02;120.25;;;34.10;;
37284;SDS011;23172;53.550;9.964;2024-02-04T21:48:05;89.78;;;28.88;;
37284;SDS011;23172;53.550;9.964;2024-02-04T21:53:09;82.00;;;29.15;;
37284;SDS011;23172;53.550;9.964;2024-02-04T21:58:11;90.72;;;31.95;;
37284;SDS011;23172;53.550;9.964;2024-02-04T22:03:13;69.65;;;29.05;;
37284;SDS011;23172;53.550;9.964;2024-02-04T22:08:16;133.95;;;43.17;;
37284;SDS011;23172;53.550;9.964;2024-02-04T22:13:18;111.07;;;28.67;;
37284;SDS011;23172;53.550;9.964;2024-02-04T22:18:20;40.85;;;15.63;;
37284;SDS011;23172;53.550;9.964;2024-02-04T22:23:23;52.80;;;26.73;;
37284;SDS011;23172;53.550;9.964;2024-02-04T22:28:26;63.72;;;30.00;;
37284;SDS011;23172;53.550;9.964;2024-02-04T22:33:29;120.70;;;35.17;;
37284;SDS011;23172;53.550;9.964;2024-02-04T22:38:33;52.53;;;13.82;;
37284;SDS011;23172;53.550;9.964;2024-02-04T22:43:35;57.70;;;17.45;;
37284;SDS011;23172;53.550;9.964;2024-02-04T22:48:37;88.55;;;25.08;;
37284;SDS011;23172;53.550;9.964;2024-02-04T22:53:41;125.75;;;36.15;;
37284;SDS011;23172;53.550;9.964;2024-02-04T22:58:43;75.03;;;18.13;;
37284;SDS011;23172;53.550;9.964;2024-02-04T23:03:45;62.70;;;19.70;;
37284;SDS011;23172;53.550;9.964;2024-02-04T23:08:48;141.52;;;27.73;;
37284;SDS011;23172;53.550;9.964;2024-02-04T23:13:50;92.30;;;28.08;;
37284;SDS011;23172;53.550;9.964;2024-02-04T23:18:52;83.38;;;23.60;;
37284;SDS011;23172;53.550;9.964;2024-02-04T23:23:55;149.25;;;34.50;;
37284;SDS011;23172;53.550;9.964;2024-02-04T23:28:57;210.40;;;44.88;;
37284;SDS011;23172;53.550;9.964;2024-02-04T23:33:59;69.93;;;19.55;;
37284;SDS011;23172;53.550;9.964;2024-02-04T23:39:02;81.07;;;18.25;;
37284;SDS011;23172;53.550;9.964;2024-02-04T23:44:06;124.95;;;32.97;;
37284;SDS011;23172;53.550;9.964;2024-02-04T23:49:08;67.13;;;22.45;;
37284;SDS011;23172;53.550;9.964;2024-02-04T23:54:13;70.88;;;21.83;;
37284;SDS011;23172;53.550;9.964;2024-02-04T23:59:15;106.38;;;17.83;;
